Time;durP1;ratioP1;P1;durP2;ratioP2;P2;SDS_P1;SDS_P2;PMS_P1;PMS_P2;Temp;Humidity;BMP_temperature;BMP_pressure;BME280_temperature;BME280_humidity;BME280_pressure;Samples;Min_cycle;Max_cycle;Signal;HPM_P1;HPM_P2
2021/09/20 00:00:57;;;;;;;5.13;4.28;;;;;;;14.37;69.49;101724.34;5025353;28;20337;-42
2021/09/20 00:03:22;;;;;;;4.90;4.15;;;;;;;14.26;69.50;101726.47;5015784;28;20531;-41
2021/09/20 00:05:48;;;;;;;7.57;4.90;;;;;;;14.22;69.46;101725.19;5031928;28;20365;-41
2021/09/20 00:08:13;;;;;;;6.07;4.40;;;;;;;14.18;69.57;101720.31;5030701;28;20546;-41
2021/09/20 00:10:38;;;;;;;5.80;4.18;;;;;;;14.16;69.60;101725.88;5028642;28;20445;-42
2021/09/20 00:13:04;;;;;;;6.90;4.20;;;;;;;14.19;69.84;101724.69;5012619;28;20030;-42
2021/09/20 00:15:29;;;;;;;4.95;4.13;;;;;;;14.18;69.79;101726.56;5031736;28;20396;-42
2021/09/20 00:17:54;;;;;;;4.88;4.00;;;;;;;14.22;68.97;101729.75;5031542;28;20095;-42
2021/09/20 00:20:20;;;;;;;4.85;4.05;;;;;;;14.11;69.65;101731.00;5031793;28;20025;-41
2021/09/20 00:22:45;;;;;;;4.80;4.30;;;;;;;14.13;69.51;101730.84;5016186;28;20041;-41
2021/09/20 00:25:11;;;;;;;7.28;4.38;;;;;;;14.13;69.24;101733.56;5029375;28;20055;-41
2021/09/20 00:27:37;;;;;;;6.40;4.47;;;;;;;14.11;69.51;101736.44;5031659;28;20033;-41
2021/09/20 00:30:04;;;;;;;5.82;4.35;;;;;;;14.10;69.09;101742.88;5031613;28;20029;-40
2021/09/20 00:32:29;;;;;;;6.07;3.92;;;;;;;14.17;68.89;101741.13;5031558;28;20495;-40
2021/09/20 00:34:54;;;;;;;5.50;4.18;;;;;;;14.22;68.66;101737.88;5016212;28;20057;-40
2021/09/20 00:37:20;;;;;;;4.00;3.65;;;;;;;14.22;68.67;101746.00;5011917;28;20049;-41
2021/09/20 00:39:45;;;;;;;4.32;3.55;;;;;;;14.30;68.07;101742.34;5012426;28;20033;-41
2021/09/20 00:42:10;;;;;;;4.90;3.42;;;;;;;14.25;68.26;101742.91;5015582;28;20037;-40
2021/09/20 00:44:36;;;;;;;4.82;4.00;;;;;;;14.27;67.70;101746.28;5019249;28;20499;-41
2021/09/20 00:47:01;;;;;;;6.05;3.55;;;;;;;14.30;67.76;101736.94;5031572;28;20460;-41
2021/09/20 00:49:27;;;;;;;6.53;3.42;;;;;;;14.35;67.59;101739.94;5031492;28;20431;-41
2021/09/20 00:51:52;;;;;;;4.60;3.95;;;;;;;14.34;67.44;101740.97;5021884;28;20030;-40
2021/09/20 00:54:18;;;;;;;4.72;3.97;;;;;;;14.29;67.35;101741.50;5031475;28;20034;-42
2021/09/20 00:56:44;;;;;;;4.28;3.88;;;;;;;14.34;67.82;101743.66;5031307;28;20034;-41
2021/09/20 00:59:09;;;;;;;4.22;3.70;;;;;;;14.42;67.09;101743.59;5030152;28;20029;-41
2021/09/20 01:01:35;;;;;;;7.28;4.30;;;;;;;14.33;67.65;101744.72;5034428;28;20499;-41
2021/09/20 01:04:00;;;;;;;4.80;4.20;;;;;;;14.22;67.87;101744.13;5023703;28;20030;-41
2021/09/20 01:06:26;;;;;;;5.10;4.30;;;;;;;14.21;67.71;101747.84;5014362;28;20111;-41
2021/09/20 01:08:51;;;;;;;4.40;4.00;;;;;;;14.20;67.96;101748.03;5015607;28;20050;-41
2021/09/20 01:11:17;;;;;;;4.82;4.32;;;;;;;14.12;68.07;101745.41;5024679;28;20029;-41
2021/09/20 01:13:42;;;;;;;9.38;5.28;;;;;;;14.14;68.08;101746.06;5026787;28;20026;-42
2021/09/20 01:16:08;;;;;;;6.35;4.68;;;;;;;14.05;68.38;101743.41;5015443;28;20430;-41
2021/09/20 01:18:33;;;;;;;5.90;4.43;;;;;;;13.98;68.76;101744.34;5015296;28;20100;-41
2021/09/20 01:20:58;;;;;;;5.35;4.65;;;;;;;13.97;68.59;101742.66;5015960;28;20095;-43
2021/09/20 01:23:24;;;;;;;8.35;5.05;;;;;;;14.00;68.66;101747.69;5031534;28;20061;-41
2021/09/20 01:25:49;;;;;;;7.97;4.00;;;;;;;14.02;68.27;101741.09;5034847;28;20101;-41
2021/09/20 01:28:14;;;;;;;5.07;4.15;;;;;;;14.02;68.24;101740.25;5034816;28;20407;-41
2021/09/20 01:30:40;;;;;;;7.07;4.47;;;;;;;13.97;68.46;101737.25;5034699;28;20410;-41
2021/09/20 01:33:05;;;;;;;6.60;4.38;;;;;;;14.00;68.17;101742.28;5033052;28;20036;-41
2021/09/20 01:35:31;;;;;;;7.80;4.65;;;;;;;13.96;68.21;101738.28;5019104;28;20539;-43
2021/09/20 01:37:56;;;;;;;6.13;4.63;;;;;;;13.79;68.71;101738.41;5014817;28;20069;-41
2021/09/20 01:40:22;;;;;;;5.50;4.60;;;;;;;13.74;68.77;101735.38;5014676;28;20555;-41
2021/09/20 01:42:48;;;;;;;9.77;4.85;;;;;;;13.83;68.89;101736.19;5022363;28;20121;-41
2021/09/20 01:45:15;;;;;;;5.28;4.38;;;;;;;13.93;68.07;101747.59;5027888;28;20119;-40
2021/09/20 01:47:40;;;;;;;4.85;4.40;;;;;;;13.89;68.27;101748.16;5034649;28;20025;-41
2021/09/20 01:50:07;;;;;;;3.85;3.55;;;;;;;13.85;68.21;101744.97;5034679;28;20032;-40
2021/09/20 01:52:33;;;;;;;4.72;4.22;;;;;;;13.90;67.43;101747.09;5018156;28;20061;-41
2021/09/20 01:54:58;;;;;;;4.05;3.65;;;;;;;13.89;67.22;101750.84;5031200;28;20051;-42
2021/09/20 01:57:23;;;;;;;5.03;3.88;;;;;;;13.86;67.10;101756.63;5034306;28;20032;-42
2021/09/20 01:59:50;;;;;;;4.72;3.92;;;;;;;13.96;66.13;101757.22;5034294;28;20028;-41
2021/09/20 02:02:15;;;;;;;6.00;3.97;;;;;;;13.94;66.15;101759.28;5031795;28;20077;-40
2021/09/20 02:04:41;;;;;;;4.45;3.72;;;;;;;13.93;65.85;101758.44;5014544;28;20029;-40
2021/09/20 02:07:06;;;;;;;3.92;3.55;;;;;;;13.93;65.66;101762.97;5014337;28;20030;-40
2021/09/20 02:09:32;;;;;;;5.57;4.00;;;;;;;13.93;65.46;101762.97;5014461;28;20079;-40
2021/09/20 02:11:57;;;;;;;5.07;3.83;;;;;;;13.91;64.66;101760.47;5015036;28;20049;-41
2021/09/20 02:14:22;;;;;;;4.43;3.58;;;;;;;13.98;64.62;101763.28;5033393;28;20110;-40
2021/09/20 02:16:48;;;;;;;3.70;3.40;;;;;;;13.97;64.38;101767.00;5034055;28;20025;-41
2021/09/20 02:19:14;;;;;;;3.85;3.45;;;;;;;13.92;64.48;101754.03;5025018;28;20054;-40
2021/09/20 02:21:39;;;;;;;4.78;3.80;;;;;;;14.01;64.17;101760.22;5014282;28;20503;-41
2021/09/20 02:24:04;;;;;;;4.95;3.67;;;;;;;13.91;64.19;101767.75;5030698;28;20030;-41
2021/09/20 02:26:30;;;;;;;5.38;3.60;;;;;;;13.90;64.36;101768.75;5033780;28;20022;-42
2021/09/20 02:28:55;;;;;;;9.40;4.50;;;;;;;13.88;64.21;101766.25;5027855;28;20034;-40
2021/09/20 02:31:20;;;;;;;21.00;11.65;;;;;;;13.86;63.90;101775.56;5013998;28;20496;-41
2021/09/20 02:33:46;;;;;;;112.43;56.92;;;;;;;13.84;63.83;101771.16;5027641;28;20058;-41
2021/09/20 02:36:11;;;;;;;63.45;31.00;;;;;;;13.83;64.24;101774.91;5033626;28;20116;-40
2021/09/20 02:38:37;;;;;;;35.13;23.85;;;;;;;13.88;63.53;101778.94;5033683;28;20045;-41
2021/09/20 02:41:04;;;;;;;8.05;6.80;;;;;;;13.90;62.79;101785.84;5031944;28;20036;-41
2021/09/20 02:43:29;;;;;;;5.90;5.35;;;;;;;13.90;62.73;101780.44;5022364;28;20034;-41
2021/09/20 02:45:55;;;;;;;8.90;6.90;;;;;;;13.75;63.15;101785.78;5033327;28;20029;-41
2021/09/20 02:48:20;;;;;;;8.07;5.95;;;;;;;13.77;63.19;101786.47;5032259;28;20033;-41
2021/09/20 02:50:46;;;;;;;5.70;4.20;;;;;;;13.82;62.51;101783.19;5013609;28;20026;-40
2021/09/20 02:53:11;;;;;;;5.15;4.40;;;;;;;13.82;62.59;101788.59;5021867;28;20033;-41
2021/09/20 02:55:36;;;;;;;6.28;4.35;;;;;;;13.79;62.98;101788.97;5033351;28;20396;-40
2021/09/20 02:58:02;;;;;;;7.38;4.50;;;;;;;13.86;62.27;101789.94;5033981;28;20030;-41
2021/09/20 03:00:27;;;;;;;4.68;4.28;;;;;;;13.82;62.58;101788.59;5031242;28;20365;-41
2021/09/20 03:02:53;;;;;;;6.90;4.20;;;;;;;13.84;62.94;101794.69;5018229;28;20041;-42
2021/09/20 03:05:18;;;;;;;6.93;4.53;;;;;;;13.90;62.59;101790.41;5033100;28;20025;-41
2021/09/20 03:07:43;;;;;;;8.77;4.40;;;;;;;13.89;62.88;101794.16;5031832;28;20526;-41
2021/09/20 03:10:09;;;;;;;4.90;4.43;;;;;;;13.87;62.68;101796.19;5033029;28;20037;-41
2021/09/20 03:12:35;;;;;;;5.30;4.13;;;;;;;13.87;62.78;101791.59;5021504;28;20126;-41
2021/09/20 03:15:00;;;;;;;4.43;3.97;;;;;;;13.94;62.92;101797.16;5032943;28;20068;-42
2021/09/20 03:17:25;;;;;;;6.22;3.45;;;;;;;13.90;63.07;101802.09;5033062;28;20103;-41
2021/09/20 03:19:51;;;;;;;4.22;3.67;;;;;;;13.89;62.56;101800.41;5032941;28;20064;-41
2021/09/20 03:22:16;;;;;;;4.05;3.65;;;;;;;13.81;62.97;101798.59;5029753;28;20104;-41
2021/09/20 03:24:42;;;;;;;4.70;3.42;;;;;;;13.80;63.38;101794.22;5012813;28;20033;-41
2021/09/20 03:27:07;;;;;;;4.18;3.70;;;;;;;13.91;62.90;101794.81;5013033;28;20374;-41
2021/09/20 03:29:32;;;;;;;4.63;4.13;;;;;;;13.86;63.22;101806.16;5013112;28;20466;-41
2021/09/20 03:31:58;;;;;;;5.20;4.35;;;;;;;13.91;62.68;101811.06;5011467;28;20504;-41
2021/09/20 03:34:23;;;;;;;5.97;4.15;;;;;;;13.85;63.12;101809.91;5031146;28;20052;-41
2021/09/20 03:36:49;;;;;;;4.18;3.78;;;;;;;13.78;63.08;101812.47;5032658;28;20084;-41
2021/09/20 03:39:14;;;;;;;4.38;3.72;;;;;;;13.76;62.93;101817.22;5030539;28;20033;-41
2021/09/20 03:41:39;;;;;;;5.57;4.95;;;;;;;13.77;62.62;101818.94;5030758;28;20055;-41
2021/09/20 03:44:05;;;;;;;4.82;4.28;;;;;;;13.73;62.70;101823.00;5019851;28;20026;-42
2021/09/20 03:46:30;;;;;;;5.05;3.55;;;;;;;13.81;62.20;101831.06;5032358;28;20481;-41
2021/09/20 03:48:55;;;;;;;4.85;3.65;;;;;;;13.83;62.56;101828.19;5029563;28;20040;-41
2021/09/20 03:51:21;;;;;;;4.50;4.10;;;;;;;13.76;62.48;101825.34;5024010;28;20026;-41
2021/09/20 03:53:46;;;;;;;4.35;3.50;;;;;;;13.75;62.29;101837.19;5032491;28;20022;-41
2021/09/20 03:56:11;;;;;;;4.63;4.07;;;;;;;13.67;62.29;101825.59;5030932;28;20048;-41
2021/09/20 03:58:37;;;;;;;4.70;4.25;;;;;;;13.64;62.50;101824.09;5034023;28;20104;-41
2021/09/20 04:01:03;;;;;;;5.70;4.30;;;;;;;13.64;63.05;101834.91;5031810;28;20116;-41
2021/09/20 04:03:28;;;;;;;6.22;4.30;;;;;;;13.73;62.41;101838.38;5032255;28;20027;-40
2021/09/20 04:05:54;;;;;;;7.50;4.00;;;;;;;13.74;62.69;101840.91;5032354;28;20517;-41
2021/09/20 04:08:26;;;;;;;4.50;4.10;;;;;;;13.78;62.66;101836.00;5032253;28;20028;-41
2021/09/20 04:10:51;;;;;;;7.45;4.03;;;;;;;13.77;62.42;101840.56;5014733;28;20116;-41
2021/09/20 04:13:16;;;;;;;4.47;4.03;;;;;;;13.77;62.47;101843.28;5012426;28;20490;-41
2021/09/20 04:15:42;;;;;;;6.35;3.88;;;;;;;13.70;62.17;101844.16;5012585;28;20559;-40
2021/09/20 04:18:07;;;;;;;5.90;4.05;;;;;;;13.65;62.54;101841.97;5013132;28;20497;-41
2021/09/20 04:20:33;;;;;;;5.03;4.13;;;;;;;13.62;62.65;101847.75;5012460;28;20104;-41
2021/09/20 04:22:58;;;;;;;5.72;3.92;;;;;;;13.70;62.54;101846.88;5012253;28;20495;-41
2021/09/20 04:25:23;;;;;;;4.85;4.15;;;;;;;13.71;62.83;101852.09;5012279;28;20068;-40
2021/09/20 04:27:49;;;;;;;5.15;3.88;;;;;;;13.73;63.13;101858.16;5012704;28;20050;-41
2021/09/20 04:30:14;;;;;;;5.70;4.28;;;;;;;13.77;62.15;101851.38;5012407;28;20041;-41
2021/09/20 04:32:40;;;;;;;7.57;4.57;;;;;;;13.72;61.44;101848.38;5013754;28;20620;-41
2021/09/20 04:35:06;;;;;;;7.20;4.07;;;;;;;13.59;61.75;101865.19;5015130;28;20034;-41
2021/09/20 04:37:32;;;;;;;4.47;4.07;;;;;;;13.47;62.61;101860.34;5030469;28;20117;-42
2021/09/20 04:39:57;;;;;;;6.20;4.07;;;;;;;13.46;62.38;101870.31;5036346;28;20051;-41
2021/09/20 04:42:22;;;;;;;4.70;4.20;;;;;;;13.51;62.27;101872.50;5034053;28;20108;-41
2021/09/20 04:44:48;;;;;;;5.43;4.40;;;;;;;13.44;62.61;101874.22;5017648;28;20136;-42
2021/09/20 04:47:13;;;;;;;8.02;4.13;;;;;;;13.43;62.01;101869.81;5031266;28;20033;-41
2021/09/20 04:49:39;;;;;;;6.82;4.45;;;;;;;13.38;62.14;101884.72;5033058;28;20044;-41
2021/09/20 04:52:04;;;;;;;4.57;4.13;;;;;;;13.34;61.98;101886.06;5023205;28;20065;-42
2021/09/20 04:54:30;;;;;;;5.15;4.60;;;;;;;13.28;62.54;101894.88;5026064;28;20384;-41
2021/09/20 04:56:55;;;;;;;5.75;4.40;;;;;;;13.27;63.47;101897.75;5030443;28;20428;-42
2021/09/20 04:59:20;;;;;;;6.45;4.65;;;;;;;13.28;64.01;101899.44;5025728;28;20041;-41
2021/09/20 05:01:46;;;;;;;5.10;4.60;;;;;;;13.23;63.95;101902.63;5030993;28;20029;-41
2021/09/20 05:04:14;;;;;;;9.05;4.82;;;;;;;13.17;64.21;101903.34;5022161;28;20120;-41
2021/09/20 05:06:39;;;;;;;;;;;;;;;13.15;64.35;101905.38;5023303;28;20021;-41
2021/09/20 05:09:06;;;;;;;6.13;4.82;;;;;;;13.14;64.30;101903.69;5022898;28;20338;-41
2021/09/20 05:11:32;;;;;;;7.05;4.95;;;;;;;13.08;63.88;101909.75;5015805;28;20053;-42
2021/09/20 05:13:57;;;;;;;6.53;4.80;;;;;;;13.03;64.16;101912.97;5034747;28;20029;-41
2021/09/20 05:16:22;;;;;;;6.45;4.57;;;;;;;13.03;64.12;101912.13;5031121;28;20429;-41
2021/09/20 05:18:48;;;;;;;5.47;4.75;;;;;;;13.07;64.16;101919.75;5022218;28;20533;-41
2021/09/20 05:21:13;;;;;;;5.30;4.80;;;;;;;13.03;63.74;101922.94;5021396;28;20037;-42
2021/09/20 05:23:38;;;;;;;4.80;4.35;;;;;;;13.09;63.55;101917.72;5019010;28;20187;-41
2021/09/20 05:26:04;;;;;;;5.80;4.70;;;;;;;13.02;63.40;101921.28;5019126;28;20098;-41
2021/09/20 05:28:29;;;;;;;5.32;4.40;;;;;;;13.05;63.40;101926.31;5021934;28;20059;-42
2021/09/20 05:30:55;;;;;;;8.70;5.15;;;;;;;13.12;62.69;101927.34;5031233;28;20401;-41
2021/09/20 05:33:20;;;;;;;5.57;4.45;;;;;;;13.11;63.04;101931.91;5019949;28;20092;-42
2021/09/20 05:35:46;;;;;;;5.55;4.40;;;;;;;13.12;62.68;101927.34;5020194;28;20173;-41
2021/09/20 05:38:14;;;;;;;7.82;4.82;;;;;;;13.07;62.58;101929.72;5032898;28;20029;-41
2021/09/20 05:40:39;;;;;;;;;;;;;;;13.08;62.69;101925.97;5034413;28;20111;-42
2021/09/20 05:43:04;;;;;;;7.90;4.82;;;;;;;13.04;62.19;101936.31;5019704;28;20323;-41
2021/09/20 05:45:30;;;;;;;6.55;4.93;;;;;;;13.11;61.60;101933.75;5017416;28;20148;-41
2021/09/20 05:47:55;;;;;;;5.93;4.30;;;;;;;13.11;61.63;101931.03;5019857;28;20073;-41
2021/09/20 05:50:21;;;;;;;8.00;4.78;;;;;;;13.10;61.66;101942.88;5024202;28;20519;-41
2021/09/20 05:52:47;;;;;;;8.18;4.53;;;;;;;13.06;61.99;101944.22;5027974;28;20084;-40
2021/09/20 05:55:14;;;;;;;5.35;4.47;;;;;;;12.99;61.41;101937.84;5031988;28;20072;-41
2021/09/20 05:57:40;;;;;;;8.50;5.05;;;;;;;13.00;61.46;101939.50;5017234;28;20030;-40
2021/09/20 06:00:06;;;;;;;7.45;5.90;;;;;;;13.05;61.02;101947.94;5025033;28;20548;-41
2021/09/20 06:02:31;;;;;;;7.35;4.53;;;;;;;13.10;60.74;101946.41;5030273;28;20112;-40
2021/09/20 06:04:56;;;;;;;6.28;4.97;;;;;;;13.11;60.41;101958.06;5024046;28;20120;-40
2021/09/20 06:07:22;;;;;;;4.95;4.38;;;;;;;13.03;60.74;101953.50;5033343;28;20116;-40
2021/09/20 06:09:47;;;;;;;5.82;4.68;;;;;;;13.04;60.63;101962.50;5034671;28;20044;-40
2021/09/20 06:12:12;;;;;;;9.32;4.20;;;;;;;13.02;60.63;101956.41;5033956;28;20322;-40
2021/09/20 06:14:38;;;;;;;6.15;4.75;;;;;;;13.04;60.25;101967.91;5032536;28;20128;-41
2021/09/20 06:17:03;;;;;;;5.38;4.65;;;;;;;12.95;60.67;101970.59;5033446;28;20033;-41
2021/09/20 06:19:28;;;;;;;6.82;4.40;;;;;;;13.00;60.77;101977.34;5028350;28;20077;-42
2021/09/20 06:21:54;;;;;;;5.47;4.43;;;;;;;13.03;60.10;101977.00;5023988;28;20044;-40
2021/09/20 06:24:19;;;;;;;5.13;4.60;;;;;;;13.01;60.79;101974.47;5026707;28;20026;-40
2021/09/20 06:26:44;;;;;;;5.07;4.32;;;;;;;13.09;60.77;101976.34;5017224;28;20054;-41
2021/09/20 06:29:10;;;;;;;5.15;4.30;;;;;;;13.08;59.84;101980.03;5018194;28;20064;-42
2021/09/20 06:31:37;;;;;;;6.75;4.70;;;;;;;13.07;60.02;101978.34;5021662;28;20033;-42
2021/09/20 06:34:02;;;;;;;11.32;4.80;;;;;;;13.03;60.62;101983.25;5030196;28;20128;-41
2021/09/20 06:36:28;;;;;;;8.55;4.80;;;;;;;12.99;60.89;101983.78;5030886;28;20183;-43
2021/09/20 06:38:53;;;;;;;11.82;4.57;;;;;;;12.98;60.99;101972.13;5016203;28;20041;-42
2021/09/20 06:41:18;;;;;;;5.22;4.15;;;;;;;13.02;60.47;101980.72;5017327;28;20053;-41
2021/09/20 06:43:44;;;;;;;6.85;4.30;;;;;;;13.07;60.85;101983.75;5025292;28;20125;-40
2021/09/20 06:46:09;;;;;;;10.35;4.70;;;;;;;13.13;61.35;101978.50;5026534;28;20124;-41
2021/09/20 06:48:34;;;;;;;9.98;4.85;;;;;;;13.12;61.83;101986.81;5016517;28;20029;-41
2021/09/20 06:51:00;;;;;;;7.03;4.75;;;;;;;13.11;62.33;101979.69;5014451;28;20472;-42
2021/09/20 06:53:25;;;;;;;12.25;5.40;;;;;;;13.13;62.68;101993.88;5025867;28;20449;-41
2021/09/20 06:55:50;;;;;;;7.40;5.05;;;;;;;13.16;63.35;101988.13;5032770;28;20122;-42
2021/09/20 06:58:16;;;;;;;5.78;5.05;;;;;;;13.20;62.82;101989.50;5030822;28;20033;-42
2021/09/20 07:00:41;;;;;;;6.55;5.40;;;;;;;13.19;62.81;101987.78;5029905;28;20029;-42
2021/09/20 07:03:06;;;;;;;7.82;5.28;;;;;;;13.18;62.72;101986.94;5037167;28;20038;-41
2021/09/20 07:05:32;;;;;;;9.60;5.50;;;;;;;13.16;62.26;101986.28;5030998;28;20125;-41
2021/09/20 07:08:00;;;;;;;7.13;5.13;;;;;;;13.21;62.08;101985.75;5033030;28;20030;-40
2021/09/20 07:10:26;;;;;;;7.20;4.97;;;;;;;13.21;61.78;101993.88;5024076;28;20034;-41
2021/09/20 07:12:51;;;;;;;7.93;5.18;;;;;;;13.23;61.28;101993.72;5013212;28;20088;-41
2021/09/20 07:15:17;;;;;;;8.88;5.35;;;;;;;13.28;60.74;102003.03;5021304;28;20473;-41
2021/09/20 07:17:42;;;;;;;8.88;4.95;;;;;;;13.39;60.71;102009.94;5028480;28;20183;-42
2021/09/20 07:20:08;;;;;;;8.77;5.05;;;;;;;13.46;59.96;102004.69;5021451;28;20064;-42
2021/09/20 07:22:34;;;;;;;8.48;5.60;;;;;;;13.54;59.89;102012.78;5024012;28;20082;-40
2021/09/20 07:24:59;;;;;;;6.05;5.05;;;;;;;13.52;59.68;102004.84;5026876;28;20030;-40
2021/09/20 07:27:24;;;;;;;6.85;5.07;;;;;;;13.57;60.11;102015.13;5031297;28;20445;-42
2021/09/20 07:29:50;;;;;;;5.10;4.60;;;;;;;13.64;59.84;102013.44;5027042;28;20108;-41
2021/09/20 07:32:15;;;;;;;7.43;5.25;;;;;;;13.73;59.50;102017.78;5023688;28;20108;-40
2021/09/20 07:34:41;;;;;;;7.82;5.10;;;;;;;13.89;58.06;102016.06;5023393;28;20426;-41
2021/09/20 07:37:06;;;;;;;6.68;5.00;;;;;;;13.94;57.74;102027.19;5032636;28;20048;-41
2021/09/20 07:39:33;;;;;;;6.35;4.53;;;;;;;14.03;57.24;102018.88;5026735;28;20370;-41
2021/09/20 07:41:59;;;;;;;5.32;4.57;;;;;;;14.30;57.13;102018.56;5029597;28;20065;-41
2021/09/20 07:44:24;;;;;;;6.68;5.30;;;;;;;14.54;56.72;102014.91;5032380;28;20045;-41
2021/09/20 07:46:50;;;;;;;7.78;5.43;;;;;;;14.87;55.53;102020.91;5031168;28;20064;-41
2021/09/20 07:49:15;;;;;;;9.90;4.57;;;;;;;15.75;54.46;102025.69;5031221;28;20036;-40
2021/09/20 07:51:41;;;;;;;5.22;4.07;;;;;;;16.86;49.95;102023.69;5022854;28;20108;-42
2021/09/20 07:54:06;;;;;;;6.85;4.18;;;;;;;17.45;48.42;102027.09;5021931;28;20399;-41
2021/09/20 07:56:32;;;;;;;4.45;4.05;;;;;;;18.10;46.11;102033.97;5031035;28;20441;-40
2021/09/20 07:59:03;;;;;;;3.97;3.55;;;;;;;17.52;46.58;102034.25;5032403;28;20036;-42
2021/09/20 08:01:29;;;;;;;7.28;4.40;;;;;;;16.73;47.79;102037.13;5025366;28;20030;-41
2021/09/20 08:03:55;;;;;;;5.88;3.95;;;;;;;16.27;49.31;102042.84;5012993;28;20115;-42
2021/09/20 08:06:21;;;;;;;7.15;4.10;;;;;;;16.19;49.43;102043.84;5012549;28;20461;-41
2021/09/20 08:08:47;;;;;;;6.00;4.00;;;;;;;16.01;49.54;102046.94;5026192;28;20036;-42
2021/09/20 08:11:12;;;;;;;7.97;3.88;;;;;;;15.89;50.34;102048.44;5029819;28;20124;-41
2021/09/20 08:13:38;;;;;;;6.90;4.35;;;;;;;15.98;49.98;102052.75;5021074;28;20456;-42
2021/09/20 08:16:03;;;;;;;6.78;4.07;;;;;;;15.87;49.69;102060.50;5023815;28;20396;-41
2021/09/20 08:18:29;;;;;;;4.57;4.18;;;;;;;15.93;50.25;102060.63;5011798;28;20144;-42
2021/09/20 08:20:55;;;;;;;4.10;3.70;;;;;;;16.28;50.18;102063.56;5027126;28;20092;-42
2021/09/20 08:23:21;;;;;;;6.38;4.35;;;;;;;16.68;49.30;102070.31;5037093;28;20503;-40
2021/09/20 08:25:47;;;;;;;4.65;4.10;;;;;;;17.53;46.64;102068.59;5032019;28;20099;-41
2021/09/20 08:28:13;;;;;;;5.53;4.18;;;;;;;18.24;45.28;102069.47;5030484;28;20040;-40
2021/09/20 08:30:39;;;;;;;5.55;3.78;;;;;;;19.18;44.38;102074.16;5029973;28;20414;-42
2021/09/20 08:33:04;;;;;;;5.88;4.03;;;;;;;20.15;41.63;102075.28;5017429;28;20469;-41
2021/09/20 08:35:30;;;;;;;7.03;4.20;;;;;;;20.56;39.76;102082.28;5023608;28;20040;-42
2021/09/20 08:37:55;;;;;;;4.40;4.00;;;;;;;20.61;40.03;102079.72;5030675;28;20059;-41
2021/09/20 08:40:21;;;;;;;5.95;4.30;;;;;;;20.39;38.65;102082.75;5029014;28;20034;-42
2021/09/20 08:42:46;;;;;;;6.88;4.65;;;;;;;20.28;39.36;102088.91;5031494;28;20105;-42
2021/09/20 08:45:16;;;;;;;5.78;4.80;;;;;;;20.67;38.17;102086.22;5031708;28;20134;-42
2021/09/20 08:47:45;;;;;;;4.82;4.38;;;;;;;20.64;37.85;102101.16;5032057;28;20396;-42
2021/09/20 08:50:11;;;;;;;4.93;4.53;;;;;;;20.56;37.92;102087.75;5029274;28;20039;-43
2021/09/20 08:52:37;;;;;;;7.35;4.65;;;;;;;20.91;37.68;102082.72;5030146;28;20097;-41
2021/09/20 08:55:03;;;;;;;5.63;4.93;;;;;;;21.13;36.88;102085.94;5031051;28;20087;-41
2021/09/20 08:57:28;;;;;;;5.15;4.75;;;;;;;21.27;36.07;102086.66;5014087;28;20029;-40
2021/09/20 08:59:54;;;;;;;4.68;4.32;;;;;;;21.35;36.58;102099.22;5026622;28;20551;-41
2021/09/20 09:02:21;;;;;;;5.35;4.90;;;;;;;21.23;35.54;102090.91;5031761;28;20113;-40
2021/09/20 09:04:46;;;;;;;5.20;4.70;;;;;;;21.45;35.67;102094.97;5027423;28;20060;-40
2021/09/20 09:07:14;;;;;;;5.15;4.70;;;;;;;22.01;35.40;102098.66;5038630;28;20061;-41
2021/09/20 09:09:46;;;;;;;4.97;4.47;;;;;;;22.25;35.17;102104.28;5045006;28;20033;-41
2021/09/20 09:12:19;;;;;;;5.22;4.72;;;;;;;21.57;35.30;102102.47;5030667;28;20381;-41
2021/09/20 09:14:44;;;;;;;5.13;4.63;;;;;;;20.72;36.54;102100.94;5045461;28;20111;-41
2021/09/20 09:17:18;;;;;;;5.57;4.97;;;;;;;19.82;37.95;102094.50;5035269;28;20136;-40
2021/09/20 09:19:45;;;;;;;6.40;4.93;;;;;;;19.35;39.50;102104.59;5025208;28;20095;-41
2021/09/20 09:22:11;;;;;;;6.05;5.15;;;;;;;18.99;40.85;102103.94;5028199;28;20038;-41
2021/09/20 09:24:36;;;;;;;7.15;5.38;;;;;;;18.72;41.45;102104.88;5033959;28;20075;-41
2021/09/20 09:27:03;;;;;;;6.47;4.85;;;;;;;18.38;40.44;102112.09;5033807;28;20057;-40
2021/09/20 09:29:30;;;;;;;5.25;4.85;;;;;;;17.94;41.61;102108.72;5026584;28;20488;-43
2021/09/20 09:31:58;;;;;;;5.70;5.13;;;;;;;17.58;42.44;102114.28;5035028;28;20398;-41
2021/09/20 09:34:26;;;;;;;;;;;;;;;17.43;43.16;102106.22;5031188;28;20453;-41
2021/09/20 09:37:06;;;;;;;6.20;5.15;;;;;;;17.31;43.59;102103.19;5027954;28;19916;-41
2021/09/20 09:39:32;;;;;;;5.47;4.97;;;;;;;17.26;43.84;102105.63;5034819;28;20416;-42
2021/09/20 09:41:57;;;;;;;8.07;5.70;;;;;;;17.23;44.57;102108.75;5029740;28;20040;-42
2021/09/20 09:44:31;;;;;;;6.32;5.43;;;;;;;17.15;44.15;102117.06;5046050;28;20387;-42
2021/09/20 09:46:57;;;;;;;7.57;5.35;;;;;;;17.02;45.18;102115.03;5038081;28;20033;-42
2021/09/20 09:49:23;;;;;;;6.40;5.80;;;;;;;17.00;44.93;102113.56;5019554;28;20040;-42
2021/09/20 09:51:56;;;;;;;6.88;6.18;;;;;;;16.92;45.55;102119.13;5018991;28;20731;-42
2021/09/20 09:54:33;;;;;;;6.93;6.22;;;;;;;16.87;45.63;102116.97;5027882;28;20037;-41
2021/09/20 09:57:17;;;;;;;6.65;5.85;;;;;;;16.91;46.20;102117.44;5052167;28;20029;-42
2021/09/20 09:59:43;;;;;;;10.75;6.50;;;;;;;17.03;46.01;102124.03;5016882;28;20464;-42
2021/09/20 10:02:35;;;;;;;7.72;6.50;;;;;;;17.10;46.40;102119.50;5031762;28;20037;-42
2021/09/20 10:05:12;;;;;;;7.25;6.55;;;;;;;17.11;46.51;102118.47;5029994;28;20036;-43
2021/09/20 10:07:39;;;;;;;8.32;6.82;;;;;;;17.13;46.62;102121.84;5017995;28;20392;-42
2021/09/20 10:10:15;;;;;;;;;;;;;;;17.09;46.80;102131.44;5015476;28;20033;-42
2021/09/20 10:12:42;;;;;;;6.72;6.00;;;;;;;17.01;46.43;102126.97;5020955;28;20010;-41
2021/09/20 10:15:10;;;;;;;8.25;6.60;;;;;;;16.82;46.66;102122.97;5034029;28;20029;-42
2021/09/20 10:17:36;;;;;;;6.65;5.97;;;;;;;16.89;47.60;102126.63;5012818;28;20485;-40
2021/09/20 10:20:03;;;;;;;8.48;7.03;;;;;;;16.82;46.95;102117.53;5014004;28;20064;-41
2021/09/20 10:22:28;;;;;;;7.23;6.53;;;;;;;17.05;47.33;102125.53;5026969;28;20160;-41
2021/09/20 10:24:56;;;;;;;6.70;5.95;;;;;;;17.02;47.25;102119.66;5026342;28;20324;-41
2021/09/20 10:27:23;;;;;;;8.27;6.35;;;;;;;17.10;47.70;102128.50;5027113;28;20105;-41
2021/09/20 10:29:51;;;;;;;9.27;6.25;;;;;;;17.19;48.25;102122.94;5028316;28;20033;-42
2021/09/20 10:32:17;;;;;;;11.18;6.78;;;;;;;17.21;47.38;102118.97;5026930;28;20551;-42
2021/09/20 10:34:43;;;;;;;7.82;5.93;;;;;;;17.19;48.18;102137.38;5013282;28;20096;-42
2021/09/20 10:37:17;;;;;;;8.50;6.20;;;;;;;17.33;47.80;102130.22;5030783;28;20049;-42
2021/09/20 10:39:47;;;;;;;8.35;6.95;;;;;;;17.16;46.94;102134.22;5024221;28;20034;-43
2021/09/20 10:42:33;;;;;;;8.18;6.57;;;;;;;17.07;48.67;102133.50;5024829;28;20029;-42
2021/09/20 10:44:59;;;;;;;8.38;5.68;;;;;;;17.18;47.59;102135.69;5025155;28;20504;-43
2021/09/20 10:47:40;;;;;;;8.57;6.50;;;;;;;16.92;47.97;102130.00;5033200;28;20101;-42
2021/09/20 10:50:06;;;;;;;8.75;5.93;;;;;;;16.93;48.92;102129.81;5030657;28;20037;-42
2021/09/20 10:52:31;;;;;;;9.07;6.13;;;;;;;17.04;48.89;102123.84;5024410;28;20025;-42
2021/09/20 10:55:03;;;;;;;7.15;5.75;;;;;;;17.28;47.81;102119.91;5013670;28;20036;-42
2021/09/20 10:57:28;;;;;;;9.25;6.13;;;;;;;17.36;46.90;102120.81;5018814;28;20022;-42
2021/09/20 11:00:23;;;;;;;7.43;5.88;;;;;;;17.31;48.07;102130.38;5028024;28;20041;-43
2021/09/20 11:02:49;;;;;;;8.27;5.50;;;;;;;17.30;47.91;102126.00;5023855;28;20515;-42
2021/09/20 11:05:14;;;;;;;7.00;5.30;;;;;;;17.50;47.61;102128.03;5024920;28;20025;-41
2021/09/20 11:07:46;;;;;;;6.78;6.03;;;;;;;17.51;46.96;102129.75;5022491;28;20109;-42
2021/09/20 11:10:12;;;;;;;8.27;5.88;;;;;;;17.55;46.24;102133.75;5041194;28;20380;-41
2021/09/20 11:12:56;;;;;;;8.07;5.90;;;;;;;17.54;47.13;102127.47;5037392;28;20073;-42
2021/09/20 11:15:22;;;;;;;9.30;5.90;;;;;;;17.57;46.76;102128.94;5031790;28;20038;-42
2021/09/20 11:17:49;;;;;;;8.20;5.75;;;;;;;17.69;46.27;102135.53;5032126;28;20404;-42
2021/09/20 11:20:41;;;;;;;8.80;5.97;;;;;;;17.93;46.11;102136.13;5020229;28;20053;-42
2021/09/20 11:23:21;;;;;;;7.72;6.60;;;;;;;18.52;44.56;102126.63;5028197;28;20050;-41